Time;durP1;ratioP1;P1;durP2;ratioP2;P2;SDS_P1;SDS_P2;PMS_P1;PMS_P2;Temp;Humidity;BMP_temperature;BMP_pressure;BME280_temperature;BME280_humidity;BME280_pressure;Samples;Min_cycle;Max_cycle;Signal;HPM_P1;HPM_P2
2021/06/19 00:00:55;;;;;;;1.87;1.02;;;;;;;40.35;38.38;161839.86;1771717;79;21734;-82
2021/06/19 00:03:27;;;;;;;4.47;1.57;;;;;;;40.29;38.39;161822.37;1771857;81;21813;-83
2021/06/19 00:06:00;;;;;;;1.55;1.20;;;;;;;40.29;38.39;161822.37;1770630;81;21158;-83
2021/06/19 00:08:32;;;;;;;1.67;1.00;;;;;;;40.30;38.42;161826.38;1770117;81;21293;-82
2021/06/19 00:11:04;;;;;;;2.70;1.27;;;;;;;40.32;38.43;161830.44;1770847;81;21178;-82
2021/06/19 00:13:36;;;;;;;3.02;1.12;;;;;;;40.29;38.56;161823.69;1771184;81;21171;-82
2021/06/19 00:16:09;;;;;;;4.17;1.50;;;;;;;40.27;38.44;161818.36;1771460;79;21226;-82
2021/06/19 00:18:42;;;;;;;1.20;1.10;;;;;;;40.19;38.57;161796.86;1770739;80;21663;-82
2021/06/19 00:21:14;;;;;;;3.15;1.10;;;;;;;40.20;38.57;161799.55;1771818;81;21774;-83
2021/06/19 00:23:47;;;;;;;3.17;2.35;;;;;;;40.15;38.36;161786.16;1770834;81;22398;-82
2021/06/19 00:26:19;;;;;;;1.27;1.00;;;;;;;40.15;38.36;161786.16;1771842;79;22027;-82
2021/06/19 00:28:52;;;;;;;1.42;1.12;;;;;;;40.05;38.75;161759.30;1770860;81;21171;-83
2021/06/19 00:31:24;;;;;;;1.17;1.07;;;;;;;40.00;38.82;161745.91;1772002;81;21306;-82
2021/06/19 00:33:58;;;;;;;1.98;1.00;;;;;;;40.02;38.83;161751.28;1771470;79;21701;-82
2021/06/19 00:36:30;;;;;;;2.33;1.27;;;;;;;39.95;38.88;161732.47;1771437;81;21225;-83
2021/06/19 00:39:03;;;;;;;1.85;1.22;;;;;;;39.97;38.90;161737.84;1770684;81;21265;-83
2021/06/19 00:41:36;;;;;;;1.57;1.00;;;;;;;40.00;38.88;161745.91;1770702;81;21210;-82
2021/06/19 00:44:20;;;;;;;2.35;1.10;;;;;;;40.00;38.88;161745.91;1771027;81;21807;-82
2021/06/19 00:46:55;;;;;;;1.80;1.35;;;;;;;40.03;38.82;161752.59;1771776;80;21202;-82
2021/06/19 00:49:28;;;;;;;3.17;1.02;;;;;;;40.00;38.83;161744.53;1787124;80;21171;-83
2021/06/19 00:52:00;;;;;;;2.95;1.07;;;;;;;40.00;38.78;161745.91;1786683;80;21179;-83
2021/06/19 00:54:33;;;;;;;2.08;1.15;;;;;;;40.00;38.78;161745.91;1771632;81;21689;-83
2021/06/19 00:57:10;;;;;;;1.98;1.10;;;;;;;40.00;38.82;161744.53;1770742;81;21234;-83
2021/06/19 00:59:43;;;;;;;1.47;1.20;;;;;;;39.94;38.73;161728.47;1772044;81;21881;-82
2021/06/19 01:02:15;;;;;;;1.80;1.00;;;;;;;39.94;38.73;161728.47;1770821;81;21222;-85
2021/06/19 01:04:49;;;;;;;1.75;1.20;;;;;;;40.01;38.81;161748.59;1772455;81;21698;-83
2021/06/19 01:07:22;;;;;;;2.33;1.20;;;;;;;39.96;38.83;161733.84;1772113;81;21190;-83
2021/06/19 01:09:56;;;;;;;1.65;1.00;;;;;;;40.00;38.81;161744.53;1772685;81;21179;-82
2021/06/19 01:12:28;;;;;;;3.52;1.47;;;;;;;40.00;38.83;161745.91;1771217;81;21670;-83
2021/06/19 01:15:01;;;;;;;1.92;1.20;;;;;;;39.95;38.86;161732.47;1771655;81;21714;-83
2021/06/19 01:17:33;;;;;;;1.47;1.30;;;;;;;39.95;38.86;161731.16;1773010;81;21809;-83
2021/06/19 01:20:46;;;;;;;1.25;1.07;;;;;;;39.84;38.96;161701.59;1771852;80;21231;-83
2021/06/19 01:23:18;;;;;;;3.98;1.32;;;;;;;39.84;38.96;161701.59;1771580;81;21178;-83
2021/06/19 01:25:51;;;;;;;1.92;1.10;;;;;;;39.86;38.95;161706.97;1772176;81;21872;-83
2021/06/19 01:28:23;;;;;;;3.12;0.90;;;;;;;39.85;38.96;161702.91;1771557;81;21734;-82
2021/06/19 01:30:55;;;;;;;3.87;1.22;;;;;;;39.80;39.03;161689.53;1772167;81;21301;-83
2021/06/19 01:33:28;;;;;;;2.98;1.32;;;;;;;39.78;39.04;161684.16;1770752;81;21191;-83
2021/06/19 01:36:00;;;;;;;3.30;1.00;;;;;;;39.77;39.03;161681.47;1770914;81;21222;-83
2021/06/19 01:38:35;;;;;;;2.50;1.17;;;;;;;39.74;39.06;161674.78;1770860;81;21178;-82
2021/06/19 01:41:25;;;;;;;2.65;1.20;;;;;;;39.70;39.12;161662.72;1770841;81;21182;-84
2021/06/19 01:44:08;;;;;;;1.05;0.93;;;;;;;39.59;39.24;161633.16;1772067;81;21166;-82
2021/06/19 01:46:42;;;;;;;1.90;1.35;;;;;;;39.58;39.28;161630.53;1771728;81;21361;-84
2021/06/19 01:49:14;;;;;;;2.05;1.10;;;;;;;39.60;39.24;161635.84;1771053;81;21369;-83
2021/06/19 01:51:47;;;;;;;2.25;1.20;;;;;;;39.61;39.21;161638.53;1771098;81;21797;-82
2021/06/19 01:54:19;;;;;;;1.00;0.90;;;;;;;39.59;39.24;161633.16;1770991;81;21211;-82
2021/06/19 01:56:52;;;;;;;3.17;1.15;;;;;;;39.62;39.17;161641.22;1771665;81;21159;-83
2021/06/19 01:59:25;;;;;;;1.40;1.30;;;;;;;39.56;39.26;161626.47;1770811;81;21148;-83
2021/06/19 02:01:59;;;;;;;1.57;1.12;;;;;;;39.56;39.26;161625.16;1770918;81;21179;-83
2021/06/19 02:04:32;;;;;;;1.25;0.90;;;;;;;39.62;39.20;161642.59;1771063;81;21163;-83
2021/06/19 02:07:05;;;;;;;1.60;1.30;;;;;;;39.63;39.03;161645.28;1771440;79;21202;-84
2021/06/19 02:09:37;;;;;;;2.95;1.10;;;;;;;39.64;39.11;161647.92;1771894;81;21194;-84
2021/06/19 02:12:11;;;;;;;1.90;0.88;;;;;;;39.54;39.26;161621.09;1771418;81;21163;-83
2021/06/19 02:14:43;;;;;;;1.62;1.10;;;;;;;39.54;39.26;161621.09;1772073;81;21221;-83
2021/06/19 02:17:16;;;;;;;1.00;0.90;;;;;;;39.53;39.27;161618.41;1741893;82;21360;-83
2021/06/19 02:19:49;;;;;;;1.00;0.90;;;;;;;39.45;39.34;161596.92;1740612;81;21250;-84
2021/06/19 02:22:22;;;;;;;1.20;1.10;;;;;;;39.44;39.39;161594.23;1740400;82;21245;-84
2021/06/19 02:24:56;;;;;;;1.45;1.07;;;;;;;39.45;39.38;161595.61;1741305;82;21309;-83
2021/06/19 02:27:28;;;;;;;1.40;1.00;;;;;;;39.42;39.41;161588.86;1740500;82;21218;-84
2021/06/19 02:30:00;;;;;;;1.22;1.00;;;;;;;39.44;39.41;161592.92;1740260;82;21241;-83
2021/06/19 02:32:32;;;;;;;2.20;1.15;;;;;;;39.47;39.36;161600.98;1765436;79;21206;-83
2021/06/19 02:35:07;;;;;;;1.00;0.90;;;;;;;39.43;39.39;161590.23;1772029;79;21183;-83
2021/06/19 02:37:41;;;;;;;1.95;1.30;;;;;;;39.41;39.43;161586.19;1773148;81;21407;-83
2021/06/19 02:40:13;;;;;;;1.20;1.10;;;;;;;39.37;39.44;161575.48;1772738;81;21883;-82
2021/06/19 02:42:46;;;;;;;1.65;1.00;;;;;;;39.32;39.52;161562.06;1773313;81;21246;-83
2021/06/19 02:45:18;;;;;;;2.30;1.20;;;;;;;39.35;39.50;161568.80;1771918;81;21170;-83
2021/06/19 02:47:54;;;;;;;2.45;1.05;;;;;;;39.31;39.56;161559.38;1771995;80;21658;-83
2021/06/19 02:50:30;;;;;;;1.55;0.90;;;;;;;39.33;39.55;161563.44;1772333;81;21194;-83
2021/06/19 02:53:02;;;;;;;1.30;1.05;;;;;;;39.26;39.59;161546.00;1773278;81;21702;-83
2021/06/19 02:55:37;;;;;;;1.90;0.90;;;;;;;39.26;39.59;161546.00;1772640;80;21198;-84
2021/06/19 02:58:10;;;;;;;1.82;0.88;;;;;;;39.24;39.70;161539.25;1770946;81;21190;-82
2021/06/19 03:00:44;;;;;;;2.10;0.90;;;;;;;39.24;39.70;161539.25;1773102;81;21683;-83
2021/06/19 03:03:16;;;;;;;1.12;1.00;;;;;;;39.24;39.71;161539.25;1772502;79;21825;-84
2021/06/19 03:05:50;;;;;;;1.20;1.10;;;;;;;39.24;39.75;161539.25;1772702;81;21341;-83
2021/06/19 03:08:24;;;;;;;2.33;1.27;;;;;;;39.23;39.77;161536.62;1771430;80;21191;-83
2021/06/19 03:10:57;;;;;;;1.72;1.00;;;;;;;39.23;39.78;161537.94;1760701;81;21268;-84
2021/06/19 03:13:29;;;;;;;2.35;1.20;;;;;;;39.23;39.81;161536.62;1772659;80;21180;-83
2021/06/19 03:16:02;;;;;;;1.62;1.20;;;;;;;39.20;39.83;161529.88;1773442;80;21184;-83
2021/06/19 03:18:34;;;;;;;4.40;1.17;;;;;;;39.25;39.97;161543.31;1771749;80;21152;-82
2021/06/19 03:21:07;;;;;;;1.05;0.95;;;;;;;39.25;39.97;161543.31;1741493;82;21194;-85
2021/06/19 03:23:40;;;;;;;1.07;0.95;;;;;;;39.24;39.86;161540.63;1742341;82;21833;-82
2021/06/19 03:26:13;;;;;;;1.52;0.90;;;;;;;39.14;39.99;161513.81;1740986;82;21230;-83
2021/06/19 03:28:45;;;;;;;4.22;0.85;;;;;;;39.12;40.06;161508.44;1742399;82;21694;-83
2021/06/19 03:31:17;;;;;;;2.35;1.30;;;;;;;39.16;40.03;161517.81;1742680;81;21345;-83
2021/06/19 03:33:50;;;;;;;1.60;1.10;;;;;;;39.15;39.98;161515.12;1742474;82;21332;-82
2021/06/19 03:36:23;;;;;;;2.75;0.85;;;;;;;39.21;40.00;161531.25;1764123;80;21337;-84
2021/06/19 03:38:56;;;;;;;1.10;0.90;;;;;;;39.21;40.00;161531.25;1777188;80;21332;-82
2021/06/19 03:41:29;;;;;;;0.80;0.80;;;;;;;39.20;39.99;161529.88;1779104;80;21285;-82
2021/06/19 03:44:01;;;;;;;1.20;1.10;;;;;;;39.09;40.21;161500.39;1777110;80;21273;-83
2021/06/19 03:46:33;;;;;;;1.15;0.88;;;;;;;39.09;40.21;161500.39;1771791;81;21887;-83
2021/06/19 03:49:06;;;;;;;2.92;0.98;;;;;;;39.14;40.19;161512.44;1771281;80;21265;-83
2021/06/19 03:51:38;;;;;;;2.52;1.07;;;;;;;39.15;40.18;161516.50;1771464;81;21217;-82
2021/06/19 03:54:10;;;;;;;7.55;2.10;;;;;;;39.08;40.28;161497.70;1771895;80;21234;-83
2021/06/19 03:56:43;;;;;;;8.80;1.40;;;;;;;39.11;40.30;161504.44;1771586;80;21225;-83
2021/06/19 03:59:15;;;;;;;0.98;0.93;;;;;;;39.18;40.22;161524.50;1771535;81;21160;-83
2021/06/19 04:01:48;;;;;;;1.05;0.95;;;;;;;39.16;40.39;161519.19;1771537;81;21207;-82
2021/06/19 04:04:20;;;;;;;3.33;1.10;;;;;;;39.23;40.23;161536.62;1771557;81;21182;-83
2021/06/19 04:06:53;;;;;;;2.10;1.05;;;;;;;39.22;40.24;161535.25;1771328;81;21226;-82
2021/06/19 04:09:26;;;;;;;3.10;1.15;;;;;;;39.23;40.26;161536.62;1771537;79;21209;-83
2021/06/19 04:11:59;;;;;;;2.75;1.30;;;;;;;39.23;40.28;161536.62;1771488;81;21781;-82
2021/06/19 04:14:32;;;;;;;1.47;1.20;;;;;;;39.24;40.44;161539.25;1771563;81;21261;-83
2021/06/19 04:17:04;;;;;;;2.15;1.12;;;;;;;39.24;40.44;161539.25;1771589;80;21163;-83
2021/06/19 04:19:41;;;;;;;5.45;1.35;;;;;;;39.27;40.34;161548.69;1755441;81;21177;-87
2021/06/19 04:22:14;;;;;;;1.57;1.30;;;;;;;39.32;40.29;161560.75;1769069;80;21286;-84
2021/06/19 04:24:46;;;;;;;0.88;0.80;;;;;;;39.37;40.25;161575.48;1771202;81;21808;-85
2021/06/19 04:27:21;;;;;;;3.22;1.00;;;;;;;39.34;40.29;161566.13;1770520;81;21304;-86
2021/06/19 04:29:54;;;;;;;1.72;1.00;;;;;;;39.29;40.41;161554.05;1771586;81;21170;-83
2021/06/19 04:32:26;;;;;;;1.30;1.00;;;;;;;39.25;40.52;161541.94;1771154;81;21721;-84
2021/06/19 04:34:59;;;;;;;2.92;1.00;;;;;;;39.25;40.54;161543.31;1771579;80;21163;-84
2021/06/19 04:37:31;;;;;;;1.05;0.90;;;;;;;39.30;40.50;161556.69;1755371;81;22191;-84
2021/06/19 04:40:16;;;;;;;1.40;1.15;;;;;;;39.30;40.52;161556.69;1768453;80;21187;-84
2021/06/19 04:42:56;;;;;;;2.30;1.10;;;;;;;39.45;40.40;161595.61;1772379;81;21352;-87
2021/06/19 04:45:19;;;;;;;5.15;1.50;;;;;;;39.43;40.40;161591.55;1772505;80;21301;-88
2021/06/19 04:47:52;;;;;;;1.40;0.95;;;;;;;39.38;40.67;161578.17;1772048;81;21842;-85
2021/06/19 04:50:24;;;;;;;3.50;1.27;;;;;;;39.42;40.81;161587.55;1772460;81;21794;-84
2021/06/19 04:52:56;;;;;;;3.20;1.27;;;;;;;39.43;40.90;161591.55;1766671;80;21205;-85
2021/06/19 04:55:29;;;;;;;2.65;1.00;;;;;;;39.42;40.96;161588.86;1768223;81;21155;-85
2021/06/19 04:58:03;;;;;;;3.65;1.00;;;;;;;39.44;40.98;161592.92;1757185;80;21407;-84
2021/06/19 05:00:36;;;;;;;5.50;1.10;;;;;;;39.44;40.98;161592.92;1743516;80;21345;-85
2021/06/19 05:03:09;;;;;;;4.28;1.07;;;;;;;39.37;41.09;161574.13;1753024;81;21174;-84
2021/06/19 05:05:41;;;;;;;2.95;1.10;;;;;;;39.35;41.15;161570.13;1745653;80;21266;-86
2021/06/19 05:08:14;;;;;;;3.00;1.10;;;;;;;39.35;41.23;161568.80;1747111;81;21249;-86
2021/06/19 05:10:48;;;;;;;4.33;1.35;;;;;;;39.38;41.31;161576.81;1749528;81;21335;-87
2021/06/19 05:13:21;;;;;;;3.22;1.10;;;;;;;39.47;41.22;161600.98;1743492;81;21757;-88
2021/06/19 05:15:53;;;;;;;2.83;1.17;;;;;;;39.47;41.27;161600.98;1744281;80;21356;-86
2021/06/19 05:18:26;;;;;;;4.00;0.98;;;;;;;39.50;41.23;161610.41;1745804;80;21741;-87
2021/06/19 05:20:58;;;;;;;2.83;1.10;;;;;;;39.53;41.17;161617.09;1747184;79;21206;-84
2021/06/19 05:23:30;;;;;;;4.53;1.25;;;;;;;39.57;41.13;161627.84;1749193;81;21777;-85
2021/06/19 05:26:02;;;;;;;5.08;1.25;;;;;;;39.54;41.13;161619.78;1751800;80;21349;-85
2021/06/19 05:28:35;;;;;;;4.08;1.30;;;;;;;39.58;41.08;161630.53;1744842;81;21372;-87
2021/06/19 05:31:07;;;;;;;3.62;1.20;;;;;;;39.58;41.36;161631.84;1769276;80;21234;-85
2021/06/19 05:33:39;;;;;;;2.92;1.15;;;;;;;39.58;41.36;161631.84;1755649;80;21233;-86
2021/06/19 05:36:12;;;;;;;3.72;1.50;;;;;;;39.61;41.08;161638.53;1748592;81;21177;-89
2021/06/19 05:38:46;;;;;;;1.85;1.30;;;;;;;39.58;41.06;161630.53;1748892;81;21395;-86
2021/06/19 05:41:19;;;;;;;2.52;0.90;;;;;;;39.64;41.01;161646.59;1748013;80;21171;-86
2021/06/19 05:43:52;;;;;;;1.12;1.02;;;;;;;39.59;41.15;161633.16;1743449;81;21253;-87
2021/06/19 05:46:25;;;;;;;2.08;1.20;;;;;;;39.62;41.21;161642.59;1751286;81;21353;-85
2021/06/19 05:48:58;;;;;;;4.62;1.42;;;;;;;39.66;41.23;161653.28;1742922;80;21421;-86
2021/06/19 05:51:31;;;;;;;3.95;1.40;;;;;;;39.64;41.29;161647.92;1757133;81;21179;-87
2021/06/19 05:54:04;;;;;;;1.45;1.25;;;;;;;39.66;41.34;161651.97;1743959;80;21293;-86
2021/06/19 05:56:36;;;;;;;2.52;1.30;;;;;;;39.73;41.38;161672.09;1749144;81;21211;-85
2021/06/19 05:59:09;;;;;;;2.33;1.17;;;;;;;39.77;41.54;161681.47;1745468;80;21207;-86
2021/06/19 06:01:41;;;;;;;3.58;1.60;;;;;;;39.77;41.54;161681.47;1747634;80;21865;-84
2021/06/19 06:04:13;;;;;;;1.80;1.30;;;;;;;39.88;41.44;161712.30;1752696;81;21225;-84
2021/06/19 06:06:48;;;;;;;1.35;1.00;;;;;;;39.96;41.41;161733.84;1745976;81;21439;-84
2021/06/19 06:09:21;;;;;;;1.02;0.95;;;;;;;40.03;41.34;161752.59;1751072;79;21163;-87
2021/06/19 06:11:53;;;;;;;3.25;1.35;;;;;;;40.03;41.34;161752.59;1747727;80;21186;-85
2021/06/19 06:14:26;;;;;;;2.80;1.10;;;;;;;40.02;41.35;161751.28;1747871;80;21348;-85
2021/06/19 06:16:58;;;;;;;2.58;1.27;;;;;;;40.11;41.05;161775.41;1746484;80;21670;-88
2021/06/19 06:19:31;;;;;;;2.83;1.10;;;;;;;40.13;41.41;161780.78;1743894;81;21788;-86
2021/06/19 06:22:05;;;;;;;3.02;1.12;;;;;;;40.13;41.41;161780.78;1751184;79;21722;-85
2021/06/19 06:24:38;;;;;;;1.72;1.10;;;;;;;40.18;41.24;161794.17;1749312;81;21205;-87
2021/06/19 06:27:11;;;;;;;1.20;1.10;;;;;;;40.79;40.35;161956.67;1747560;79;21383;-88
2021/06/19 06:29:43;;;;;;;1.40;1.10;;;;;;;40.79;40.35;161956.67;1752240;81;21266;-87
2021/06/19 06:32:15;;;;;;;1.45;1.10;;;;;;;40.74;40.52;161943.17;1745736;81;21281;-85
2021/06/19 06:34:49;;;;;;;3.92;1.62;;;;;;;40.82;40.44;161966.05;1764557;81;21242;-93
2021/06/19 06:37:22;;;;;;;1.02;0.93;;;;;;;40.46;41.02;161869.37;1745996;80;21237;-87
2021/06/19 06:39:56;;;;;;;2.70;1.27;;;;;;;40.54;40.99;161889.52;1749185;79;21242;-89
2021/06/19 06:42:28;;;;;;;2.77;1.00;;;;;;;40.65;40.95;161920.34;1749599;81;21233;-87
2021/06/19 06:45:01;;;;;;;3.55;1.22;;;;;;;40.61;41.08;161909.66;1769330;81;21202;-86
2021/06/19 06:47:33;;;;;;;2.50;1.30;;;;;;;40.61;41.25;161908.28;1770745;80;21245;-87
2021/06/19 06:50:07;;;;;;;1.57;1.00;;;;;;;40.71;41.18;161935.11;1770663;81;21203;-86
2021/06/19 06:52:39;;;;;;;1.57;1.17;;;;;;;40.69;41.32;161931.09;1740399;82;21714;-83
2021/06/19 06:55:12;;;;;;;1.57;1.00;;;;;;;40.78;41.35;161955.30;1747203;81;21166;-84
2021/06/19 06:57:46;;;;;;;5.47;1.12;;;;;;;41.73;40.13;162211.78;1754520;81;21163;-84
2021/06/19 07:00:20;;;;;;;3.55;1.40;;;;;;;41.87;39.95;162249.39;1732364;81;21313;-86
2021/06/19 07:02:55;;;;;;;3.35;1.22;;;;;;;41.95;40.16;162270.97;1738937;82;21753;-86
2021/06/19 07:05:29;;;;;;;1.95;1.45;;;;;;;41.95;40.16;162270.97;1739625;82;21233;-86
2021/06/19 07:08:01;;;;;;;1.98;1.10;;;;;;;41.92;39.97;162264.16;1741846;82;21353;-86
2021/06/19 07:10:34;;;;;;;1.57;1.10;;;;;;;42.01;39.97;162288.44;1742430;82;21175;-85
2021/06/19 07:13:07;;;;;;;2.35;1.50;;;;;;;42.08;39.94;162307.20;1740260;82;21214;-86
2021/06/19 07:15:42;;;;;;;2.10;1.20;;;;;;;42.13;39.88;162319.30;1742287;82;21337;-85
2021/06/19 07:18:14;;;;;;;2.35;1.20;;;;;;;42.17;39.86;162331.38;1742227;82;21254;-85
2021/06/19 07:20:46;;;;;;;2.02;1.30;;;;;;;41.43;40.92;162129.88;1741513;82;21848;-85
2021/06/19 07:23:18;;;;;;;3.45;1.27;;;;;;;41.31;41.30;162097.66;1740847;82;21214;-85
2021/06/19 07:25:52;;;;;;;3.77;1.45;;;;;;;41.29;41.44;162093.59;1742426;82;21309;-85
2021/06/19 07:28:24;;;;;;;6.37;1.57;;;;;;;41.34;41.49;162107.05;1740372;82;21218;-85
2021/06/19 07:30:57;;;;;;;3.42;1.20;;;;;;;41.40;41.53;162121.81;1741557;82;21218;-86
2021/06/19 07:33:29;;;;;;;2.02;1.20;;;;;;;41.41;41.64;162124.50;1742377;82;21407;-86
2021/06/19 07:36:03;;;;;;;1.50;1.30;;;;;;;41.48;41.64;162144.64;1741223;82;21392;-86
2021/06/19 07:38:36;;;;;;;2.80;1.57;;;;;;;41.55;41.53;162163.47;1742661;82;21368;-85
2021/06/19 07:41:08;;;;;;;1.65;1.42;;;;;;;41.60;41.61;162176.92;1742399;82;21191;-85
2021/06/19 07:43:43;;;;;;;1.52;1.22;;;;;;;41.69;41.58;162201.08;1741606;81;21223;-85
2021/06/19 07:46:16;;;;;;;4.17;1.82;;;;;;;41.71;41.63;162206.45;1741240;82;21349;-85
2021/06/19 07:48:49;;;;;;;2.47;1.60;;;;;;;41.84;41.50;162240.00;1740366;82;21190;-85
2021/06/19 07:51:21;;;;;;;2.95;1.35;;;;;;;41.90;41.49;162257.47;1741316;82;21381;-85
2021/06/19 07:53:54;;;;;;;6.40;3.65;;;;;;;41.92;41.61;162264.16;1730369;82;21820;-87
2021/06/19 07:56:27;;;;;;;2.33;1.62;;;;;;;41.95;41.68;162270.97;1741235;82;21344;-86
2021/06/19 07:58:59;;;;;;;3.05;1.35;;;;;;;42.09;41.67;162309.91;1741237;81;21329;-86
2021/06/19 08:01:31;;;;;;;4.33;1.87;;;;;;;42.16;41.61;162328.69;1741666;82;21714;-86
2021/06/19 08:04:04;;;;;;;2.65;1.25;;;;;;;42.22;41.58;162343.47;1741348;82;21266;-86
2021/06/19 08:06:36;;;;;;;3.45;1.70;;;;;;;42.17;41.68;162330.06;1742293;82;21203;-86
2021/06/19 08:09:08;;;;;;;1.85;1.27;;;;;;;42.25;41.66;162352.84;1741448;82;21317;-86
2021/06/19 08:11:41;;;;;;;1.90;1.27;;;;;;;42.30;41.69;162364.98;1740507;81;21697;-86
2021/06/19 08:14:14;;;;;;;4.92;1.70;;;;;;;42.40;41.64;162391.89;1741095;82;21249;-86
2021/06/19 08:16:49;;;;;;;2.92;1.37;;;;;;;42.46;41.57;162408.00;1740653;82;21289;-86
2021/06/19 08:19:23;;;;;;;2.37;1.62;;;;;;;42.50;41.52;162418.75;1740402;82;21701;-85
2021/06/19 08:21:55;;;;;;;3.42;1.50;;;;;;;42.51;41.54;162422.77;1740511;81;21325;-86
2021/06/19 08:24:27;;;;;;;2.55;1.80;;;;;;;42.45;41.65;162406.67;1741193;82;21349;-86
2021/06/19 08:26:59;;;;;;;2.33;1.60;;;;;;;42.63;41.51;162453.69;1740430;82;21198;-86
2021/06/19 08:29:32;;;;;;;1.80;1.57;;;;;;;42.66;41.52;162463.09;1740272;82;21175;-86
2021/06/19 08:32:07;;;;;;;4.37;1.67;;;;;;;42.67;41.59;162465.78;1740297;82;21376;-86
2021/06/19 08:34:39;;;;;;;7.50;1.90;;;;;;;42.71;41.63;162476.50;1740295;82;21218;-86
2021/06/19 08:37:12;;;;;;;3.90;1.70;;;;;;;42.81;41.58;162503.45;1741191;82;21357;-86
2021/06/19 08:39:45;;;;;;;1.82;1.45;;;;;;;42.87;41.52;162519.56;1740468;82;21207;-86
2021/06/19 08:42:17;;;;;;;2.15;1.90;;;;;;;42.96;41.39;162543.73;1740479;82;21230;-86
2021/06/19 08:44:53;;;;;;;3.15;1.82;;;;;;;42.94;41.45;162538.41;1740083;82;21250;-86
2021/06/19 08:47:26;;;;;;;6.92;2.10;;;;;;;43.03;41.42;162562.58;1741174;82;21337;-85
2021/06/19 08:49:58;;;;;;;4.28;1.80;;;;;;;43.14;41.28;162592.19;1741573;81;21230;-85
2021/06/19 08:52:30;;;;;;;3.40;1.80;;;;;;;43.10;41.33;162581.37;1740231;82;21301;-86
2021/06/19 08:55:08;;;;;;;4.67;1.90;;;;;;;43.22;41.21;162615.06;1741471;82;21376;-86
2021/06/19 08:57:41;;;;;;;4.12;2.50;;;;;;;43.29;41.09;162633.84;1740523;82;21238;-85
2021/06/19 09:00:14;;;;;;;6.37;2.00;;;;;;;43.45;40.89;162675.50;1741093;82;21717;-86
2021/06/19 09:02:48;;;;;;;4.10;1.80;;;;;;;43.45;40.89;162675.50;1741435;82;21332;-86
2021/06/19 09:05:29;;;;;;;2.65;2.17;;;;;;;43.46;40.92;162679.53;1740213;82;21372;-86
2021/06/19 09:08:03;;;;;;;4.28;1.67;;;;;;;43.52;40.87;162695.72;1740140;81;21182;-86
2021/06/19 09:10:37;;;;;;;2.20;1.98;;;;;;;43.56;40.77;162705.12;1732717;82;21304;-86
2021/06/19 09:13:22;;;;;;;3.17;1.95;;;;;;;43.65;40.74;162729.31;1756027;82;22475;-86
2021/06/19 09:15:55;;;;;;;3.15;2.15;;;;;;;43.63;40.77;162723.98;1755920;82;21316;-86
2021/06/19 09:18:31;;;;;;;3.67;2.20;;;;;;;43.64;40.85;162728.00;1752387;81;21196;-85
2021/06/19 09:21:05;;;;;;;4.62;2.00;;;;;;;43.45;41.13;162676.87;1742578;82;21774;-86
2021/06/19 09:23:45;;;;;;;3.98;2.58;;;;;;;43.50;41.21;162688.97;1741924;82;21797;-86
2021/06/19 09:26:27;;;;;;;1.82;1.70;;;;;;;43.48;41.26;162684.91;1742540;82;21329;-86
2021/06/19 09:29:14;;;;;;;6.05;2.35;;;;;;;43.57;41.23;162707.83;1740420;81;21195;-85
2021/06/19 09:31:56;;;;;;;5.78;2.33;;;;;;;43.62;41.15;162721.28;1740272;82;21202;-85
2021/06/19 09:34:28;;;;;;;2.02;1.82;;;;;;;43.68;41.04;162738.77;1740464;82;21678;-86
2021/06/19 09:37:08;;;;;;;3.08;2.00;;;;;;;43.71;40.97;162745.47;1740968;81;21381;-86
2021/06/19 09:39:39;;;;;;;1.77;1.60;;;;;;;43.80;40.86;162769.66;1740201;82;21172;-86
2021/06/19 09:42:15;;;;;;;5.37;1.90;;;;;;;43.83;40.74;162780.44;1741285;82;21198;-86
2021/06/19 09:44:50;;;;;;;3.12;1.90;;;;;;;43.93;40.66;162806.00;1741736;81;21297;-86
2021/06/19 09:47:23;;;;;;;7.53;2.10;;;;;;;43.94;40.53;162808.69;1742455;82;21195;-86
2021/06/19 09:49:55;;;;;;;2.12;1.87;;;;;;;44.00;40.45;162826.17;1742092;82;21314;-86
2021/06/19 09:52:31;;;;;;;2.90;2.00;;;;;;;44.03;40.45;162834.25;1657767;82;21324;-86
2021/06/19 09:55:03;;;;;;;3.30;2.20;;;;;;;44.04;40.38;162836.94;1741836;82;21186;-86
2021/06/19 09:57:40;;;;;;;2.87;2.02;;;;;;;44.17;40.11;162871.91;1732629;82;21328;-86
2021/06/19 10:00:15;;;;;;;2.33;1.80;;;;;;;44.11;40.23;162855.75;1742436;82;21195;-86
2021/06/19 10:02:49;;;;;;;2.42;1.92;;;;;;;44.17;40.18;162870.55;1742519;82;21328;-86
2021/06/19 10:05:21;;;;;;;3.58;1.72;;;;;;;44.20;40.15;162878.62;1741847;81;21167;-86
2021/06/19 10:07:53;;;;;;;2.40;1.85;;;;;;;44.26;40.12;162896.16;1742377;81;21500;-86
2021/06/19 10:10:26;;;;;;;4.17;1.60;;;;;;;44.31;40.04;162909.63;1740836;82;21245;-87
2021/06/19 10:12:58;;;;;;;2.95;1.98;;;;;;;44.37;39.84;162925.75;1741405;82;21190;-86
2021/06/19 10:15:32;;;;;;;2.92;1.85;;;;;;;44.47;39.61;162951.31;1742239;81;21317;-86
2021/06/19 10:18:05;;;;;;;2.35;1.52;;;;;;;44.46;39.61;162948.62;1742474;82;21736;-86
2021/06/19 10:20:37;;;;;;;5.92;1.80;;;;;;;44.46;39.58;162948.62;1740210;82;21166;-86
2021/06/19 10:23:09;;;;;;;3.25;1.70;;;;;;;44.53;39.52;162967.44;1742506;82;22300;-86
2021/06/19 10:25:46;;;;;;;2.87;1.85;;;;;;;44.61;39.33;162988.98;1741210;82;21270;-86
2021/06/19 10:28:19;;;;;;;4.92;2.10;;;;;;;44.66;39.10;163003.84;1741031;82;21753;-86
2021/06/19 10:30:52;;;;;;;3.90;2.00;;;;;;;44.72;39.01;163019.95;1740909;82;21341;-87
2021/06/19 10:33:34;;;;;;;2.58;1.77;;;;;;;44.81;38.76;163042.83;1742132;82;21147;-87
2021/06/19 10:36:10;;;;;;;5.83;2.10;;;;;;;44.83;38.66;163048.22;1741963;82;21250;-86
2021/06/19 10:38:56;;;;;;;9.63;4.20;;;;;;;44.88;38.58;163063.02;1742757;82;21717;-86
2021/06/19 10:41:48;;;;;;;3.42;2.22;;;;;;;44.94;38.55;163079.14;1742341;82;21376;-86
2021/06/19 10:45:02;;;;;;;2.08;1.87;;;;;;;45.09;38.36;163119.56;1741469;82;21324;-86
2021/06/19 10:48:09;;;;;;;3.70;1.82;;;;;;;45.30;37.99;163176.06;1740451;82;21736;-86
2021/06/19 10:50:49;;;;;;;5.60;2.77;;;;;;;45.36;37.77;163192.25;1740459;81;21183;-86
2021/06/19 10:53:23;;;;;;;4.03;2.00;;;;;;;45.42;37.70;163208.42;1742761;82;21487;-86
2021/06/19 10:55:56;;;;;;;5.28;2.30;;;;;;;45.46;37.65;163220.53;1741726;82;21231;-86
2021/06/19 10:58:38;;;;;;;2.22;1.60;;;;;;;45.59;37.40;163254.19;1742587;82;21349;-85
2021/06/19 11:01:07;;;;;;;3.70;1.60;;;;;;;45.78;37.16;163305.38;1743185;82;21420;-86
2021/06/19 11:03:53;;;;;;;4.55;1.75;;;;;;;45.82;37.08;163317.48;1742933;82;21887;-85
2021/06/19 11:06:30;;;;;;;2.47;1.75;;;;;;;45.92;36.97;163345.77;1743092;82;21191;-86
2021/06/19 11:09:16;;;;;;;5.45;1.90;;;;;;;45.92;37.01;163345.77;1742893;82;21195;-86
2021/06/19 11:12:01;;;;;;;2.50;1.85;;;;;;;45.84;37.03;163324.20;1742800;82;21718;-86
2021/06/19 11:14:49;;;;;;;4.50;2.52;;;;;;;45.55;37.39;163244.73;1742018;82;21372;-87
2021/06/19 11:17:35;;;;;;;6.22;1.98;;;;;;;45.54;37.30;163240.72;1742281;81;21730;-86
2021/06/19 11:20:23;;;;;;;4.20;1.60;;;;;;;45.55;37.24;163243.41;1742375;82;21850;-86
2021/06/19 11:23:02;;;;;;;3.87;1.90;;;;;;;45.28;37.54;163170.67;1740231;82;21226;-87
2021/06/19 11:25:44;;;;;;;4.17;1.85;;;;;;;45.33;37.58;163185.47;1740602;82;21186;-87
2021/06/19 11:28:26;;;;;;;3.08;1.70;;;;;;;45.35;37.57;163189.55;1740771;81;21186;-86
2021/06/19 11:31:01;;;;;;;4.12;2.00;;;;;;;45.36;37.54;163193.56;1741311;82;21313;-86
2021/06/19 11:33:39;;;;;;;2.15;1.52;;;;;;;45.32;37.53;163182.78;1741890;82;21376;-86
2021/06/19 11:36:21;;;;;;;4.83;1.37;;;;;;;45.33;37.39;163185.47;1740376;82;21186;-86
2021/06/19 11:38:58;;;;;;;3.47;1.30;;;;;;;45.35;37.38;163190.86;1741803;82;21364;-86
2021/06/19 11:41:36;;;;;;;4.28;1.47;;;;;;;45.32;37.38;163181.45;1742656;82;21320;-86
2021/06/19 11:44:14;;;;;;;1.70;1.45;;;;;;;45.48;37.26;163225.91;1740545;82;21670;-85
2021/06/19 11:46:52;;;;;;;3.08;1.47;;;;;;;45.53;37.19;163239.39;1740304;82;21729;-85
2021/06/19 11:49:33;;;;;;;3.30;1.27;;;;;;;45.60;37.15;163258.22;1741219;82;21383;-85
2021/06/19 11:52:06;;;;;;;4.40;1.60;;;;;;;45.66;36.99;163273.02;1740261;81;21322;-85
2021/06/19 11:54:44;;;;;;;3.08;1.60;;;;;;;45.75;36.99;163297.28;1740281;82;21194;-85
2021/06/19 11:57:29;;;;;;;3.02;1.30;;;;;;;45.77;36.92;163302.69;1740987;82;21233;-84